sensor_id;sensor_type;location;lat;lon;timestamp;pressure;altitude;pressure_sealevel;temperature;humidity
10127;BME280;13080;42.608;23.362;2024-02-14T00:01:28;151832.00;;;2.88;100.00
10127;BME280;13080;42.608;23.362;2024-02-14T00:03:55;151847.50;;;2.94;100.00
10127;BME280;13080;42.608;23.362;2024-02-14T00:06:22;151847.50;;;2.94;100.00
10127;BME280;13080;42.608;23.362;2024-02-14T00:08:49;151873.28;;;3.04;100.00
10127;BME280;13080;42.608;23.362;2024-02-14T00:11:16;151852.66;;;2.96;100.00
10127;BME280;13080;42.608;23.362;2024-02-14T00:13:43;151875.91;;;3.05;100.00
10127;BME280;13080;42.608;23.362;2024-02-14T00:16:12;151879.72;;;3.07;100.00
10127;BME280;13080;42.608;23.362;2024-02-14T00:18:39;151886.22;;;3.09;100.00
10127;BME280;13080;42.608;23.362;2024-02-14T00:21:05;151884.91;;;3.09;100.00
10127;BME280;13080;42.608;23.362;2024-02-14T00:23:32;151904.28;;;3.17;100.00
10127;BME280;13080;42.608;23.362;2024-02-14T00:25:59;151877.16;;;3.06;100.00
10127;BME280;13080;42.608;23.362;2024-02-14T00:28:26;151901.69;;;3.16;100.00
10127;BME280;13080;42.608;23.362;2024-02-14T00:30:53;151914.63;;;3.21;100.00
10127;BME280;13080;42.608;23.362;2024-02-14T00:33:21;151919.75;;;3.23;100.00
10127;BME280;13080;42.608;23.362;2024-02-14T00:35:48;151919.75;;;3.23;100.00
10127;BME280;13080;42.608;23.362;2024-02-14T00:38:15;151912.03;;;3.20;100.00
10127;BME280;13080;42.608;23.362;2024-02-14T00:40:42;151919.75;;;3.23;100.00
10127;BME280;13080;42.608;23.362;2024-02-14T00:43:09;151914.63;;;3.21;100.00
10127;BME280;13080;42.608;23.362;2024-02-14T00:45:36;151904.28;;;3.17;100.00
10127;BME280;13080;42.608;23.362;2024-02-14T00:48:05;151905.56;;;3.17;100.00
10127;BME280;13080;42.608;23.362;2024-02-14T00:50:34;151897.84;;;3.14;99.71
10127;BME280;13080;42.608;23.362;2024-02-14T00:53:00;151883.63;;;3.08;100.00
10127;BME280;13080;42.608;23.362;2024-02-14T00:55:27;151888.78;;;3.10;100.00
10127;BME280;13080;42.608;23.362;2024-02-14T00:57:54;151893.97;;;3.12;100.00
10127;BME280;13080;42.608;23.362;2024-02-14T01:00:21;151884.91;;;3.09;99.69
10127;BME280;13080;42.608;23.362;2024-02-14T01:02:48;151922.38;;;3.24;100.00
10127;BME280;13080;42.608;23.362;2024-02-14T01:05:15;151922.38;;;3.24;99.66
10127;BME280;13080;42.608;23.362;2024-02-14T01:07:43;151902.97;;;3.16;99.93
10127;BME280;13080;42.608;23.362;2024-02-14T01:10:11;151905.56;;;3.17;100.00
10127;BME280;13080;42.608;23.362;2024-02-14T01:12:38;151897.84;;;3.14;99.09
10127;BME280;13080;42.608;23.362;2024-02-14T01:15:06;151924.91;;;3.25;99.42
10127;BME280;13080;42.608;23.362;2024-02-14T01:17:33;151921.09;;;3.23;99.29
10127;BME280;13080;42.608;23.362;2024-02-14T01:20:02;151931.41;;;3.27;98.75
10127;BME280;13080;42.608;23.362;2024-02-14T01:22:29;151921.09;;;3.23;98.64
10127;BME280;13080;42.608;23.362;2024-02-14T01:24:57;151910.75;;;3.19;99.22
10127;BME280;13080;42.608;23.362;2024-02-14T01:27:24;151928.81;;;3.26;99.00
10127;BME280;13080;42.608;23.362;2024-02-14T01:29:51;151927.53;;;3.26;98.09
10127;BME280;13080;42.608;23.362;2024-02-14T01:32:20;151906.84;;;3.18;98.66
10127;BME280;13080;42.608;23.362;2024-02-14T01:34:47;151905.56;;;3.17;99.02
10127;BME280;13080;42.608;23.362;2024-02-14T01:37:14;151933.97;;;3.28;97.56
10127;BME280;13080;42.608;23.362;2024-02-14T01:39:41;151919.75;;;3.23;97.52
10127;BME280;13080;42.608;23.362;2024-02-14T01:42:09;151922.38;;;3.24;97.66
10127;BME280;13080;42.608;23.362;2024-02-14T01:44:36;151927.53;;;3.26;96.93
10127;BME280;13080;42.608;23.362;2024-02-14T01:47:03;151928.81;;;3.26;97.11
10127;BME280;13080;42.608;23.362;2024-02-14T01:49:31;151933.97;;;3.28;96.66
10127;BME280;13080;42.608;23.362;2024-02-14T01:52:02;151910.75;;;3.19;97.65
10127;BME280;13080;42.608;23.362;2024-02-14T01:54:30;151943.03;;;3.32;97.16
10127;BME280;13080;42.608;23.362;2024-02-14T01:56:57;151924.91;;;3.25;96.51
10127;BME280;13080;42.608;23.362;2024-02-14T01:59:26;151924.91;;;3.25;96.62
10127;BME280;13080;42.608;23.362;2024-02-14T02:01:54;151918.47;;;3.22;97.13
10127;BME280;13080;42.608;23.362;2024-02-14T02:04:21;151940.44;;;3.31;96.19
10127;BME280;13080;42.608;23.362;2024-02-14T02:06:48;151922.38;;;3.24;96.98
10127;BME280;13080;42.608;23.362;2024-02-14T02:09:15;151928.81;;;3.26;96.10
10127;BME280;13080;42.608;23.362;2024-02-14T02:11:45;151931.41;;;3.27;96.58
10127;BME280;13080;42.608;23.362;2024-02-14T02:14:13;151931.41;;;3.27;96.36
10127;BME280;13080;42.608;23.362;2024-02-14T02:16:43;151927.53;;;3.26;95.89
10127;BME280;13080;42.608;23.362;2024-02-14T02:19:11;151901.69;;;3.16;96.45
10127;BME280;13080;42.608;23.362;2024-02-14T02:21:38;151913.31;;;3.20;96.29
10127;BME280;13080;42.608;23.362;2024-02-14T02:24:06;151921.09;;;3.23;95.58
10127;BME280;13080;42.608;23.362;2024-02-14T02:26:33;151913.31;;;3.20;95.35
10127;BME280;13080;42.608;23.362;2024-02-14T02:29:00;151909.47;;;3.19;96.05
10127;BME280;13080;42.608;23.362;2024-02-14T02:31:27;151919.75;;;3.23;95.42
10127;BME280;13080;42.608;23.362;2024-02-14T02:33:54;151913.31;;;3.20;94.86
10127;BME280;13080;42.608;23.362;2024-02-14T02:36:21;151931.41;;;3.27;95.01
10127;BME280;13080;42.608;23.362;2024-02-14T02:38:49;151886.22;;;3.09;95.59
10127;BME280;13080;42.608;23.362;2024-02-14T02:41:18;151913.31;;;3.20;94.81
10127;BME280;13080;42.608;23.362;2024-02-14T02:43:45;151896.53;;;3.13;94.59
10127;BME280;13080;42.608;23.362;2024-02-14T02:46:15;151921.09;;;3.23;93.76
10127;BME280;13080;42.608;23.362;2024-02-14T02:48:42;151912.03;;;3.20;94.30
10127;BME280;13080;42.608;23.362;2024-02-14T02:51:09;151901.69;;;3.16;94.31
10127;BME280;13080;42.608;23.362;2024-02-14T02:53:36;151917.19;;;3.22;94.15
10127;BME280;13080;42.608;23.362;2024-02-14T02:56:03;151913.31;;;3.20;94.08
10127;BME280;13080;42.608;23.362;2024-02-14T02:58:32;151912.03;;;3.20;94.41
10127;BME280;13080;42.608;23.362;2024-02-14T03:00:59;151923.66;;;3.24;93.81
10127;BME280;13080;42.608;23.362;2024-02-14T03:03:26;151923.66;;;3.24;93.64
10127;BME280;13080;42.608;23.362;2024-02-14T03:05:53;151927.53;;;3.26;93.27
10127;BME280;13080;42.608;23.362;2024-02-14T03:08:22;151906.84;;;3.18;92.76
10127;BME280;13080;42.608;23.362;2024-02-14T03:10:51;151926.25;;;3.25;92.51
10127;BME280;13080;42.608;23.362;2024-02-14T03:13:18;151909.47;;;3.19;92.95
10127;BME280;13080;42.608;23.362;2024-02-14T03:15:46;151932.69;;;3.28;92.38
10127;BME280;13080;42.608;23.362;2024-02-14T03:18:13;151912.03;;;3.20;92.48
10127;BME280;13080;42.608;23.362;2024-02-14T03:20:40;151909.47;;;3.19;92.57
10127;BME280;13080;42.608;23.362;2024-02-14T03:23:07;151906.84;;;3.18;93.48
10127;BME280;13080;42.608;23.362;2024-02-14T03:25:34;151891.34;;;3.11;93.35
10127;BME280;13080;42.608;23.362;2024-02-14T03:28:02;151909.47;;;3.19;92.55
10127;BME280;13080;42.608;23.362;2024-02-14T03:30:34;151884.91;;;3.09;93.11
10127;BME280;13080;42.608;23.362;2024-02-14T03:33:02;151902.97;;;3.16;92.93
10127;BME280;13080;42.608;23.362;2024-02-14T03:35:29;151897.84;;;3.14;92.91
10127;BME280;13080;42.608;23.362;2024-02-14T03:37:56;151902.97;;;3.16;91.96
10127;BME280;13080;42.608;23.362;2024-02-14T03:40:23;151922.38;;;3.24;92.17
10127;BME280;13080;42.608;23.362;2024-02-14T03:42:50;151905.56;;;3.17;91.76
10127;BME280;13080;42.608;23.362;2024-02-14T03:45:18;151901.69;;;3.16;92.74
10127;BME280;13080;42.608;23.362;2024-02-14T03:47:46;151909.47;;;3.19;92.16
10127;BME280;13080;42.608;23.362;2024-02-14T03:50:14;151915.91;;;3.21;91.64
10127;BME280;13080;42.608;23.362;2024-02-14T03:52:41;151892.69;;;3.12;92.10
10127;BME280;13080;42.608;23.362;2024-02-14T03:55:09;151914.63;;;3.21;91.65
10127;BME280;13080;42.608;23.362;2024-02-14T03:57:38;151901.69;;;3.16;91.25
10127;BME280;13080;42.608;23.362;2024-02-14T04:00:06;151930.09;;;3.27;90.99
10127;BME280;13080;42.608;23.362;2024-02-14T04:02:35;151921.09;;;3.23;91.23
10127;BME280;13080;42.608;23.362;2024-02-14T04:05:03;151890.06;;;3.11;nan
10127;BME280;13080;42.608;23.362;2024-02-14T04:07:33;151910.75;;;3.19;91.70
10127;BME280;13080;42.608;23.362;2024-02-14T04:10:01;151899.13;;;3.15;91.02
10127;BME280;13080;42.608;23.362;2024-02-14T04:12:28;151901.69;;;3.16;91.06
10127;BME280;13080;42.608;23.362;2024-02-14T04:14:56;151886.22;;;3.09;91.16
10127;BME280;13080;42.608;23.362;2024-02-14T04:17:23;151904.28;;;3.17;90.45
10127;BME280;13080;42.608;23.362;2024-02-14T04:19:50;151913.31;;;3.20;90.51
10127;BME280;13080;42.608;23.362;2024-02-14T04:22:16;151918.47;;;3.22;90.68
10127;BME280;13080;42.608;23.362;2024-02-14T04:24:45;151896.53;;;3.13;90.19
10127;BME280;13080;42.608;23.362;2024-02-14T04:27:12;151886.22;;;3.09;90.78
10127;BME280;13080;42.608;23.362;2024-02-14T04:29:39;151884.91;;;3.09;90.15
10127;BME280;13080;42.608;23.362;2024-02-14T04:32:06;151870.72;;;3.03;90.45
10127;BME280;13080;42.608;23.362;2024-02-14T04:34:34;151875.91;;;3.05;90.40
10127;BME280;13080;42.608;23.362;2024-02-14T04:37:04;151873.28;;;3.04;90.69
10127;BME280;13080;42.608;23.362;2024-02-14T04:39:35;151884.91;;;3.09;90.94
10127;BME280;13080;42.608;23.362;2024-02-14T04:42:04;151878.44;;;3.06;90.79
10127;BME280;13080;42.608;23.362;2024-02-14T04:44:31;151859.09;;;2.99;91.16
10127;BME280;13080;42.608;23.362;2024-02-14T04:46:58;151859.09;;;2.99;91.52
10127;BME280;13080;42.608;23.362;2024-02-14T04:49:25;151872.00;;;3.04;92.01
10127;BME280;13080;42.608;23.362;2024-02-14T04:51:54;151853.94;;;2.97;91.21
10127;BME280;13080;42.608;23.362;2024-02-14T04:54:21;151881.06;;;3.07;90.99
10127;BME280;13080;42.608;23.362;2024-02-14T04:56:48;151874.56;;;3.05;91.51
10127;BME280;13080;42.608;23.362;2024-02-14T04:59:16;151866.84;;;3.02;91.92
10127;BME280;13080;42.608;23.362;2024-02-14T05:01:43;151872.00;;;3.04;91.08
10127;BME280;13080;42.608;23.362;2024-02-14T05:04:10;151864.28;;;3.01;91.72
10127;BME280;13080;42.608;23.362;2024-02-14T05:06:42;151865.56;;;3.01;91.54
10127;BME280;13080;42.608;23.362;2024-02-14T05:09:08;151850.06;;;2.95;91.81
10127;BME280;13080;42.608;23.362;2024-02-14T05:11:36;151862.94;;;3.00;91.62
10127;BME280;13080;42.608;23.362;2024-02-14T05:14:03;151833.28;;;2.88;91.59
10127;BME280;13080;42.608;23.362;2024-02-14T05:16:31;151850.06;;;2.95;90.68
10127;BME280;13080;42.608;23.362;2024-02-14T05:18:58;151860.38;;;2.99;90.73
10127;BME280;13080;42.608;23.362;2024-02-14T05:21:26;151837.16;;;2.90;91.32
10127;BME280;13080;42.608;23.362;2024-02-14T05:23:53;151852.66;;;2.96;91.04
10127;BME280;13080;42.608;23.362;2024-02-14T05:26:20;151834.53;;;2.89;90.51
10127;BME280;13080;42.608;23.362;2024-02-14T05:28:47;151852.66;;;2.96;91.10
10127;BME280;13080;42.608;23.362;2024-02-14T05:31:14;151834.53;;;2.89;91.41
10127;BME280;13080;42.608;23.362;2024-02-14T05:33:43;151812.59;;;2.80;91.48
10127;BME280;13080;42.608;23.362;2024-02-14T05:36:10;151833.28;;;2.88;91.40
10127;BME280;13080;42.608;23.362;2024-02-14T05:38:37;151819.09;;;2.83;92.35
10127;BME280;13080;42.608;23.362;2024-02-14T05:41:04;151821.66;;;2.84;92.37
10127;BME280;13080;42.608;23.362;2024-02-14T05:43:33;151824.25;;;2.85;92.38
10127;BME280;13080;42.608;23.362;2024-02-14T05:45:59;151860.38;;;2.99;91.53
10127;BME280;13080;42.608;23.362;2024-02-14T05:48:26;151832.00;;;2.88;92.17
10127;BME280;13080;42.608;23.362;2024-02-14T05:50:55;151842.31;;;2.92;92.17
10127;BME280;13080;42.608;23.362;2024-02-14T05:53:22;151812.59;;;2.80;91.39
10127;BME280;13080;42.608;23.362;2024-02-14T05:55:49;151833.28;;;2.88;91.69
10127;BME280;13080;42.608;23.362;2024-02-14T05:58:15;151833.28;;;2.88;91.59
10127;BME280;13080;42.608;23.362;2024-02-14T06:00:42;151825.53;;;2.85;91.07
10127;BME280;13080;42.608;23.362;2024-02-14T06:03:09;151795.88;;;2.74;91.93
10127;BME280;13080;42.608;23.362;2024-02-14T06:05:36;151820.38;;;2.83;90.60
10127;BME280;13080;42.608;23.362;2024-02-14T06:08:05;151828.09;;;2.86;90.29
10127;BME280;13080;42.608;23.362;2024-02-14T06:10:32;151842.31;;;2.92;90.37
10127;BME280;13080;42.608;23.362;2024-02-14T06:12:59;151837.16;;;2.90;90.12
10127;BME280;13080;42.608;23.362;2024-02-14T06:15:26;151813.94;;;2.81;90.86
10127;BME280;13080;42.608;23.362;2024-02-14T06:17:53;151828.09;;;2.86;90.54
10127;BME280;13080;42.608;23.362;2024-02-14T06:20:20;151837.16;;;2.90;89.87
10127;BME280;13080;42.608;23.362;2024-02-14T06:22:48;151826.81;;;2.86;89.58
10127;BME280;13080;42.608;23.362;2024-02-14T06:25:16;151812.59;;;2.80;90.02
10127;BME280;13080;42.608;23.362;2024-02-14T06:27:43;151807.47;;;2.78;90.49
10127;BME280;13080;42.608;23.362;2024-02-14T06:30:11;151780.38;;;2.67;90.56
10127;BME280;13080;42.608;23.362;2024-02-14T06:32:38;151804.88;;;2.77;89.25
10127;BME280;13080;42.608;23.362;2024-02-14T06:35:06;151786.81;;;2.70;90.18
10127;BME280;13080;42.608;23.362;2024-02-14T06:37:33;151820.38;;;2.83;89.23
10127;BME280;13080;42.608;23.362;2024-02-14T06:39:59;151828.09;;;2.86;88.89
10127;BME280;13080;42.608;23.362;2024-02-14T06:42:28;151821.66;;;2.84;88.98
10127;BME280;13080;42.608;23.362;2024-02-14T06:44:55;151830.72;;;2.87;88.31
10127;BME280;13080;42.608;23.362;2024-02-14T06:47:22;151785.53;;;2.69;89.71
10127;BME280;13080;42.608;23.362;2024-02-14T06:49:48;151817.75;;;2.82;89.72
10127;BME280;13080;42.608;23.362;2024-02-14T06:52:15;151832.00;;;2.88;88.66
10127;BME280;13080;42.608;23.362;2024-02-14T06:54:42;151828.09;;;2.86;88.84
10127;BME280;13080;42.608;23.362;2024-02-14T06:57:10;151821.66;;;2.84;89.21
10127;BME280;13080;42.608;23.362;2024-02-14T06:59:39;151832.00;;;2.88;88.58
10127;BME280;13080;42.608;23.362;2024-02-14T07:02:05;151872.00;;;3.04;87.72
10127;BME280;13080;42.608;23.362;2024-02-14T07:04:32;151878.44;;;3.06;86.92
10127;BME280;13080;42.608;23.362;2024-02-14T07:06:59;151884.91;;;3.09;86.89
10127;BME280;13080;42.608;23.362;2024-02-14T07:09:26;151892.69;;;3.12;87.09
10127;BME280;13080;42.608;23.362;2024-02-14T07:11:54;151874.56;;;3.05;87.26
10127;BME280;13080;42.608;23.362;2024-02-14T07:14:22;151884.91;;;3.09;87.61
10127;BME280;13080;42.608;23.362;2024-02-14T07:16:50;151866.84;;;3.02;87.00
10127;BME280;13080;42.608;23.362;2024-02-14T07:19:17;151864.28;;;3.01;86.06
10127;BME280;13080;42.608;23.362;2024-02-14T07:21:44;151857.78;;;2.98;86.88
10127;BME280;13080;42.608;23.362;2024-02-14T07:24:11;151878.44;;;3.06;86.55
10127;BME280;13080;42.608;23.362;2024-02-14T07:26:38;151862.94;;;3.00;85.88
10127;BME280;13080;42.608;23.362;2024-02-14T07:29:07;151874.56;;;3.05;86.54
10127;BME280;13080;42.608;23.362;2024-02-14T07:31:33;151878.44;;;3.06;86.49
10127;BME280;13080;42.608;23.362;2024-02-14T07:34:02;151881.06;;;3.07;86.69
10127;BME280;13080;42.608;23.362;2024-02-14T07:36:29;151883.63;;;3.08;85.80
10127;BME280;13080;42.608;23.362;2024-02-14T07:38:56;151879.72;;;3.07;86.50
10127;BME280;13080;42.608;23.362;2024-02-14T07:41:23;151890.06;;;3.11;86.13
10127;BME280;13080;42.608;23.362;2024-02-14T07:43:50;151896.53;;;3.13;85.00
10127;BME280;13080;42.608;23.362;2024-02-14T07:46:18;151875.91;;;3.05;86.31
10127;BME280;13080;42.608;23.362;2024-02-14T07:48:45;151873.28;;;3.04;85.94
10127;BME280;13080;42.608;23.362;2024-02-14T07:51:15;151887.50;;;3.10;85.84
10127;BME280;13080;42.608;23.362;2024-02-14T07:53:42;151905.56;;;3.17;84.75
10127;BME280;13080;42.608;23.362;2024-02-14T07:56:09;151887.50;;;3.10;84.70
10127;BME280;13080;42.608;23.362;2024-02-14T07:58:36;151891.34;;;3.11;85.81
10127;BME280;13080;42.608;23.362;2024-02-14T08:01:03;151906.84;;;3.18;86.39
10127;BME280;13080;42.608;23.362;2024-02-14T08:03:30;151892.69;;;3.12;86.16
10127;BME280;13080;42.608;23.362;2024-02-14T08:05:59;151892.69;;;3.12;85.62
10127;BME280;13080;42.608;23.362;2024-02-14T08:08:28;151910.75;;;3.19;85.71
10127;BME280;13080;42.608;23.362;2024-02-14T08:10:55;151866.84;;;3.02;86.90
10127;BME280;13080;42.608;23.362;2024-02-14T08:13:22;151873.28;;;3.04;87.97
10127;BME280;13080;42.608;23.362;2024-02-14T08:16:06;151816.47;;;2.82;89.68
10127;BME280;13080;42.608;23.362;2024-02-14T08:18:33;151771.31;;;2.64;90.08
10127;BME280;13080;42.608;23.362;2024-02-14T08:21:00;151763.59;;;2.61;90.91
10127;BME280;13080;42.608;23.362;2024-02-14T08:23:31;151772.59;;;2.64;92.53
10127;BME280;13080;42.608;23.362;2024-02-14T08:26:00;151746.81;;;2.54;91.82
10127;BME280;13080;42.608;23.362;2024-02-14T08:28:26;151782.91;;;2.68;91.71
10127;BME280;13080;42.608;23.362;2024-02-14T08:30:53;151748.09;;;2.55;93.04
10127;BME280;13080;42.608;23.362;2024-02-14T08:33:20;151771.31;;;2.64;93.96
10127;BME280;13080;42.608;23.362;2024-02-14T08:35:48;151750.69;;;2.56;93.32
10127;BME280;13080;42.608;23.362;2024-02-14T08:38:15;151766.16;;;2.62;94.24
10127;BME280;13080;42.608;23.362;2024-02-14T08:40:44;151732.59;;;2.48;93.85
10127;BME280;13080;42.608;23.362;2024-02-14T08:43:11;151742.91;;;2.53;93.67
10127;BME280;13080;42.608;23.362;2024-02-14T08:45:38;151750.69;;;2.56;93.96
10127;BME280;13080;42.608;23.362;2024-02-14T08:48:06;151763.59;;;2.61;93.37
10127;BME280;13080;42.608;23.362;2024-02-14T08:50:33;151790.69;;;2.72;93.00
10127;BME280;13080;42.608;23.362;2024-02-14T08:53:00;151785.53;;;2.69;92.47
10127;BME280;13080;42.608;23.362;2024-02-14T08:55:27;151800.97;;;2.76;90.84
10127;BME280;13080;42.608;23.362;2024-02-14T08:57:59;151812.59;;;2.80;91.30
10127;BME280;13080;42.608;23.362;2024-02-14T09:00:26;151834.53;;;2.89;90.13
10127;BME280;13080;42.608;23.362;2024-02-14T09:02:53;151802.31;;;2.76;90.94
10127;BME280;13080;42.608;23.362;2024-02-14T09:05:21;151821.66;;;2.84;91.87
10127;BME280;13080;42.608;23.362;2024-02-14T09:07:48;151857.78;;;2.98;88.96
10127;BME280;13080;42.608;23.362;2024-02-14T09:10:15;151843.59;;;2.92;88.82
10127;BME280;13080;42.608;23.362;2024-02-14T09:12:41;151851.34;;;2.96;87.39
10127;BME280;13080;42.608;23.362;2024-02-14T09:15:10;151848.78;;;2.95;88.24
10127;BME280;13080;42.608;23.362;2024-02-14T09:17:38;151870.72;;;3.03;86.87
10127;BME280;13080;42.608;23.362;2024-02-14T09:20:08;151859.09;;;2.99;87.63
10127;BME280;13080;42.608;23.362;2024-02-14T09:22:36;151813.94;;;2.81;88.17
10127;BME280;13080;42.608;23.362;2024-02-14T09:25:03;151824.25;;;2.85;87.97
10127;BME280;13080;42.608;23.362;2024-02-14T09:27:30;151773.91;;;2.65;88.88
10127;BME280;13080;42.608;23.362;2024-02-14T09:29:58;151749.38;;;2.55;90.46
10127;BME280;13080;42.608;23.362;2024-02-14T09:32:26;151764.88;;;2.61;90.18
10127;BME280;13080;42.608;23.362;2024-02-14T09:34:53;151732.59;;;2.48;91.54
10127;BME280;13080;42.608;23.362;2024-02-14T09:37:20;151728.75;;;2.47;91.81
10127;BME280;13080;42.608;23.362;2024-02-14T09:39:47;151753.25;;;2.57;91.72
10127;BME280;13080;42.608;23.362;2024-02-14T09:42:16;151754.53;;;2.57;92.42
10127;BME280;13080;42.608;23.362;2024-02-14T09:44:43;151784.19;;;2.69;91.74
10127;BME280;13080;42.608;23.362;2024-02-14T09:47:12;151815.22;;;2.81;90.46
10127;BME280;13080;42.608;23.362;2024-02-14T09:49:42;151798.41;;;2.75;90.61
10127;BME280;13080;42.608;23.362;2024-02-14T09:52:11;151816.47;;;2.82;91.72
10127;BME280;13080;42.608;23.362;2024-02-14T09:54:39;151843.59;;;2.92;90.20
10127;BME280;13080;42.608;23.362;2024-02-14T09:57:06;151850.06;;;2.95;90.70
10127;BME280;13080;42.608;23.362;2024-02-14T09:59:33;151886.22;;;3.09;88.91
10127;BME280;13080;42.608;23.362;2024-02-14T10:02:01;151873.28;;;3.04;89.33
10127;BME280;13080;42.608;23.362;2024-02-14T10:04:28;151865.56;;;3.01;89.23
10127;BME280;13080;42.608;23.362;2024-02-14T10:06:57;151897.84;;;3.14;88.49
10127;BME280;13080;42.608;23.362;2024-02-14T10:09:25;151912.03;;;3.20;87.82
10127;BME280;13080;42.608;23.362;2024-02-14T10:11:52;151865.56;;;3.01;86.82
10127;BME280;13080;42.608;23.362;2024-02-14T10:14:19;151832.00;;;2.88;87.81
10127;BME280;13080;42.608;23.362;2024-02-14T10:16:46;151833.28;;;2.88;87.62
10127;BME280;13080;42.608;23.362;2024-02-14T10:19:16;151807.47;;;2.78;87.00
10127;BME280;13080;42.608;23.362;2024-02-14T10:21:43;151812.59;;;2.80;88.29
10127;BME280;13080;42.608;23.362;2024-02-14T10:24:11;151828.09;;;2.86;87.61
10127;BME280;13080;42.608;23.362;2024-02-14T10:26:39;151842.31;;;2.92;87.94
10127;BME280;13080;42.608;23.362;2024-02-14T10:29:08;151811.31;;;2.80;86.64
10127;BME280;13080;42.608;23.362;2024-02-14T10:31:36;151789.38;;;2.71;86.94
10127;BME280;13080;42.608;23.362;2024-02-14T10:34:04;151806.16;;;2.78;86.97
10127;BME280;13080;42.608;23.362;2024-02-14T10:36:33;151795.88;;;2.74;88.39
10127;BME280;13080;42.608;23.362;2024-02-14T10:39:01;151839.72;;;2.91;88.55
10127;BME280;13080;42.608;23.362;2024-02-14T10:41:31;151825.53;;;2.85;88.22
10127;BME280;13080;42.608;23.362;2024-02-14T10:44:02;151820.38;;;2.83;87.32
10127;BME280;13080;42.608;23.362;2024-02-14T10:46:31;151852.66;;;2.96;86.19
10127;BME280;13080;42.608;23.362;2024-02-14T10:49:02;151866.84;;;3.02;85.19
10127;BME280;13080;42.608;23.362;2024-02-14T10:51:31;151860.38;;;2.99;85.11
10127;BME280;13080;42.608;23.362;2024-02-14T10:53:58;151841.03;;;2.91;86.16
10127;BME280;13080;42.608;23.362;2024-02-14T10:56:28;151843.59;;;2.92;85.73
10127;BME280;13080;42.608;23.362;2024-02-14T10:58:57;151833.28;;;2.88;85.67
10127;BME280;13080;42.608;23.362;2024-02-14T11:01:25;151804.88;;;2.77;86.28
10127;BME280;13080;42.608;23.362;2024-02-14T11:03:53;151839.72;;;2.91;85.67
10127;BME280;13080;42.608;23.362;2024-02-14T11:06:21;151848.78;;;2.95;85.71
10127;BME280;13080;42.608;23.362;2024-02-14T11:08:57;151830.72;;;2.87;86.09
10127;BME280;13080;42.608;23.362;2024-02-14T11:11:28;151812.59;;;2.80;86.38
10127;BME280;13080;42.608;23.362;2024-02-14T11:13:57;151839.72;;;2.91;86.06
10127;BME280;13080;42.608;23.362;2024-02-14T11:16:28;151826.81;;;2.86;85.74
10127;BME280;13080;42.608;23.362;2024-02-14T11:19:06;151835.88;;;2.89;86.08
10127;BME280;13080;42.608;23.362;2024-02-14T11:21:35;151825.53;;;2.85;86.38
10127;BME280;13080;42.608;23.362;2024-02-14T11:24:06;151833.28;;;2.88;86.68
10127;BME280;13080;42.608;23.362;2024-02-14T13:09:45;152068.31;;;3.82;78.44
10127;BME280;13080;42.608;23.362;2024-02-14T13:12:12;152054.09;;;3.76;77.32
10127;BME280;13080;42.608;23.362;2024-02-14T13:14:40;152065.72;;;3.81;77.08
10127;BME280;13080;42.608;23.362;2024-02-14T13:17:07;152057.97;;;3.78;77.24
10127;BME280;13080;42.608;23.362;2024-02-14T13:21:34;152060.53;;;3.79;77.36
10127;BME280;13080;42.608;23.362;2024-02-14T13:24:01;152070.88;;;3.83;78.29
10127;BME280;13080;42.608;23.362;2024-02-14T13:26:29;152095.47;;;3.92;77.17
10127;BME280;13080;42.608;23.362;2024-02-14T13:28:56;152087.69;;;3.89;76.01
10127;BME280;13080;42.608;23.362;2024-02-14T13:31:23;152061.88;;;3.79;76.79
10127;BME280;13080;42.608;23.362;2024-02-14T13:33:50;152069.59;;;3.82;76.75
10127;BME280;13080;42.608;23.362;2024-02-14T13:36:16;152055.38;;;3.77;77.53
10127;BME280;13080;42.608;23.362;2024-02-14T13:38:45;152061.88;;;3.79;77.80
10127;BME280;13080;42.608;23.362;2024-02-14T13:41:12;152074.78;;;3.84;76.87
10127;BME280;13080;42.608;23.362;2024-02-14T13:43:39;152096.75;;;3.93;77.53
10127;BME280;13080;42.608;23.362;2024-02-14T13:46:07;152077.34;;;3.85;76.62
10127;BME280;13080;42.608;23.362;2024-02-14T13:48:35;152038.56;;;3.70;77.14
10127;BME280;13080;42.608;23.362;2024-02-14T13:51:02;152028.28;;;3.66;78.29
10127;BME280;13080;42.608;23.362;2024-02-14T13:53:29;152055.38;;;3.77;77.60
10127;BME280;13080;42.608;23.362;2024-02-14T13:55:57;152037.28;;;3.69;77.81
10127;BME280;13080;42.608;23.362;2024-02-14T13:58:24;152026.94;;;3.65;79.34
10127;BME280;13080;42.608;23.362;2024-02-14T14:00:51;152016.66;;;3.61;79.90
10127;BME280;13080;42.608;23.362;2024-02-14T14:03:19;152020.50;;;3.63;80.07
10127;BME280;13080;42.608;23.362;2024-02-14T14:05:45;152041.19;;;3.71;79.88
10127;BME280;13080;42.608;23.362;2024-02-14T14:08:15;152014.03;;;3.60;80.04
10127;BME280;13080;42.608;23.362;2024-02-14T14:10:42;151979.19;;;3.46;80.54
10127;BME280;13080;42.608;23.362;2024-02-14T14:13:12;152021.81;;;3.63;80.03
10127;BME280;13080;42.608;23.362;2024-02-14T14:15:39;152015.31;;;3.61;79.93
10127;BME280;13080;42.608;23.362;2024-02-14T14:18:06;151999.88;;;3.54;80.26
10127;BME280;13080;42.608;23.362;2024-02-14T14:20:34;152007.59;;;3.58;80.00
10127;BME280;13080;42.608;23.362;2024-02-14T14:23:01;152034.72;;;3.68;79.88
10127;BME280;13080;42.608;23.362;2024-02-14T14:25:28;152017.94;;;3.62;79.50
10127;BME280;13080;42.608;23.362;2024-02-14T14:27:57;152038.56;;;3.70;78.90
10127;BME280;13080;42.608;23.362;2024-02-14T14:30:25;152025.66;;;3.65;79.05
10127;BME280;13080;42.608;23.362;2024-02-14T14:32:53;152024.38;;;3.64;78.68
10127;BME280;13080;42.608;23.362;2024-02-14T14:35:20;152025.66;;;3.65;78.79
10127;BME280;13080;42.608;23.362;2024-02-14T14:37:47;152019.22;;;3.62;77.85